Time;durP1;ratioP1;P1;durP2;ratioP2;P2;SDS_P1;SDS_P2;PMS_P1;PMS_P2;Temp;Humidity;BMP_temperature;BMP_pressure;BME280_temperature;BME280_humidity;BME280_pressure;Samples;Min_cycle;Max_cycle;Signal;HPM_P1;HPM_P2
2021/09/08 00:02:03;;;;;;;7.43;6.34;;;;;;;15.05;84.27;99581.47;2045554;76;52329;-77
2021/09/08 00:05:09;;;;;;;7.74;6.50;;;;;;;14.98;84.38;99569.44;2049018;79;20207;-77
2021/09/08 00:08:12;;;;;;;9.21;5.94;;;;;;;14.87;84.94;99567.00;2047680;79;20168;-77
2021/09/08 00:11:15;;;;;;;8.49;7.26;;;;;;;14.85;85.25;99563.56;2047447;79;20189;-77
2021/09/08 00:14:17;;;;;;;6.76;5.96;;;;;;;14.76;85.38;99562.00;2048274;79;20472;-77
2021/09/08 00:17:20;;;;;;;9.48;6.71;;;;;;;14.76;85.52;99571.59;2043461;76;21072;-77
2021/09/08 00:20:23;;;;;;;7.18;6.00;;;;;;;14.72;85.28;99562.94;2042723;79;20152;-77
2021/09/08 00:23:26;;;;;;;6.69;5.93;;;;;;;14.69;85.57;99557.75;2044236;79;20172;-77
2021/09/08 00:26:28;;;;;;;6.54;5.86;;;;;;;14.70;85.51;99554.25;2042999;79;20210;-77
2021/09/08 00:29:32;;;;;;;8.75;6.86;;;;;;;14.67;85.32;99554.31;2043282;79;20194;-77
2021/09/08 00:32:35;;;;;;;9.06;7.64;;;;;;;14.67;85.25;99554.31;2048001;76;50540;-77
2021/09/08 00:35:37;;;;;;;10.95;6.89;;;;;;;14.69;84.99;99541.22;2048429;79;20241;-77
2021/09/08 00:38:40;;;;;;;13.94;6.99;;;;;;;14.67;85.37;99551.69;2048504;79;20163;-78
2021/09/08 00:41:43;;;;;;;7.95;6.76;;;;;;;14.63;85.76;99541.34;2048258;79;20168;-77
2021/09/08 00:44:45;;;;;;;6.43;5.86;;;;;;;14.58;85.55;99538.81;2048323;79;20948;-77
2021/09/08 00:47:48;;;;;;;9.77;6.53;;;;;;;14.53;85.59;99543.25;2047581;77;25716;-77
2021/09/08 00:50:51;;;;;;;7.68;6.44;;;;;;;14.47;85.67;99541.59;2048853;79;20193;-77
2021/09/08 00:53:56;;;;;;;7.78;6.96;;;;;;;14.44;85.79;99536.44;2048852;79;20156;-78
2021/09/08 00:57:00;;;;;;;9.01;6.21;;;;;;;14.42;85.84;99535.56;2048145;79;20229;-77
2021/09/08 01:00:04;;;;;;;9.39;7.05;;;;;;;14.32;85.97;99533.13;2048787;79;20244;-77
2021/09/08 01:03:06;;;;;;;7.25;6.49;;;;;;;14.31;86.20;99529.66;2043020;76;26124;-78
2021/09/08 01:06:09;;;;;;;11.01;7.82;;;;;;;14.31;86.30;99529.66;2042373;79;20206;-77
2021/09/08 01:09:14;;;;;;;9.59;7.30;;;;;;;14.29;86.38;99530.59;2043068;79;20156;-77
2021/09/08 01:12:16;;;;;;;11.63;6.61;;;;;;;14.28;86.15;99524.50;2042975;79;20224;-77
2021/09/08 01:15:19;;;;;;;7.59;6.51;;;;;;;14.28;86.01;99526.25;2042562;79;20184;-77
2021/09/08 01:18:22;;;;;;;8.07;6.85;;;;;;;14.25;86.29;99523.69;2039361;76;24221;-77
2021/09/08 01:21:25;;;;;;;10.77;6.84;;;;;;;14.20;86.53;99527.25;2043749;79;20161;-78
2021/09/08 01:24:27;;;;;;;10.73;6.74;;;;;;;14.18;86.95;99520.31;2043297;79;20186;-77
2021/09/08 01:27:30;;;;;;;9.25;6.90;;;;;;;14.19;87.05;99519.44;2042648;79;20164;-77
2021/09/08 01:30:32;;;;;;;10.50;6.99;;;;;;;14.22;86.89;99516.78;2046405;79;20724;-78
2021/09/08 01:33:35;;;;;;;9.27;6.85;;;;;;;14.23;86.84;99512.41;2046075;76;60637;-77
2021/09/08 01:36:39;;;;;;;10.05;7.16;;;;;;;14.19;86.78;99507.25;2048937;79;20680;-77
2021/09/08 01:39:42;;;;;;;10.56;7.01;;;;;;;14.20;86.66;99505.50;2049698;79;20175;-77
2021/09/08 01:42:46;;;;;;;8.49;6.21;;;;;;;14.12;87.14;99499.53;2050156;78;20609;-78
2021/09/08 01:45:49;;;;;;;8.46;6.57;;;;;;;14.07;86.99;99501.38;2046582;79;20192;-77
2021/09/08 01:48:52;;;;;;;9.50;7.68;;;;;;;14.09;86.93;99495.22;2043224;79;20198;-77
2021/09/08 01:51:55;;;;;;;8.56;6.69;;;;;;;14.10;87.02;99501.31;2042865;79;20240;-78
2021/09/08 01:54:57;;;;;;;9.51;7.09;;;;;;;14.11;86.95;99495.19;2043374;79;20176;-77
2021/09/08 01:58:00;;;;;;;7.60;6.50;;;;;;;14.05;86.90;99490.09;2042912;79;20196;-77
2021/09/08 02:01:03;;;;;;;11.80;6.63;;;;;;;14.00;86.85;99487.53;2043747;79;20918;-77
2021/09/08 02:04:07;;;;;;;7.03;6.32;;;;;;;13.94;86.82;99486.78;2044640;79;20632;-77
2021/09/08 02:07:10;;;;;;;9.00;6.76;;;;;;;13.87;87.37;99483.44;2044385;79;20777;-78
2021/09/08 02:10:13;;;;;;;7.06;6.14;;;;;;;13.81;87.47;99476.53;2044448;79;20288;-77
2021/09/08 02:13:16;;;;;;;7.80;6.68;;;;;;;13.83;87.55;99479.16;2043693;79;20211;-77
2021/09/08 02:16:20;;;;;;;10.07;6.36;;;;;;;13.76;87.39;99475.75;2046324;76;21371;-77
2021/09/08 02:19:23;;;;;;;6.54;5.91;;;;;;;13.74;87.46;99472.31;2049581;79;20762;-77
2021/09/08 02:22:26;;;;;;;7.60;5.82;;;;;;;13.72;86.96;99487.13;2050199;79;20167;-77
2021/09/08 02:25:29;;;;;;;8.60;6.13;;;;;;;13.67;86.70;99483.75;2049002;79;20247;-78
2021/09/08 02:28:31;;;;;;;7.15;5.99;;;;;;;13.66;86.57;99486.38;2050052;79;20670;-78
2021/09/08 02:31:34;;;;;;;8.11;6.32;;;;;;;13.64;86.95;99482.91;2043669;77;24715;-78
2021/09/08 02:34:37;;;;;;;7.40;5.80;;;;;;;13.55;87.10;99484.78;2038467;79;20165;-78
2021/09/08 02:37:40;;;;;;;6.78;5.68;;;;;;;13.51;87.61;99487.47;2038814;79;20260;-78
2021/09/08 02:40:42;;;;;;;7.05;6.15;;;;;;;13.45;87.49;99479.72;2038927;79;20312;-78
2021/09/08 02:43:45;;;;;;;6.75;6.14;;;;;;;13.39;87.80;99485.88;2039027;79;20192;-78
2021/09/08 02:46:47;;;;;;;8.81;6.03;;;;;;;13.39;88.17;99485.88;2041288;76;20768;-77
2021/09/08 02:49:52;;;;;;;7.14;6.43;;;;;;;13.37;88.58;99481.59;2043954;79;20216;-77
2021/09/08 02:52:54;;;;;;;8.21;6.09;;;;;;;13.45;88.62;99485.78;2043551;79;20152;-78
2021/09/08 02:55:57;;;;;;;8.05;5.64;;;;;;;13.51;88.23;99475.28;2044233;79;20288;-77
2021/09/08 02:59:00;;;;;;;6.10;5.50;;;;;;;13.54;87.74;99474.38;2044284;79;20236;-78
2021/09/08 03:02:03;;;;;;;7.50;6.34;;;;;;;13.53;87.45;99470.03;2039869;76;26891;-77
2021/09/08 03:05:06;;;;;;;6.36;5.45;;;;;;;13.51;87.16;99472.69;2037842;79;20179;-78
2021/09/08 03:08:09;;;;;;;6.68;5.56;;;;;;;13.50;86.97;99480.53;2038107;79;20173;-78
2021/09/08 03:11:12;;;;;;;6.79;5.40;;;;;;;13.45;86.90;99482.31;2037353;79;20168;-78
2021/09/08 03:14:15;;;;;;;7.93;5.51;;;;;;;13.43;86.64;99468.44;2038033;79;20980;-77
2021/09/08 03:17:18;;;;;;;6.06;5.49;;;;;;;13.37;86.61;99472.00;2042137;77;21331;-77
2021/09/08 03:20:20;;;;;;;5.53;5.03;;;;;;;13.33;86.35;99466.88;2042766;79;20238;-77
2021/09/08 03:23:23;;;;;;;5.11;4.61;;;;;;;13.29;86.18;99460.84;2043716;79;20206;-78
2021/09/08 03:26:26;;;;;;;9.68;5.49;;;;;;;13.22;86.13;99460.03;2043424;79;20168;-78
2021/09/08 03:29:28;;;;;;;5.85;5.14;;;;;;;13.10;85.86;99465.38;2043258;79;20157;-77
2021/09/08 03:32:31;;;;;;;6.39;5.50;;;;;;;13.05;86.32;99463.72;2042866;76;21325;-77
2021/09/08 03:35:34;;;;;;;5.28;4.80;;;;;;;13.01;86.49;99457.69;2043418;79;20165;-77
2021/09/08 03:38:37;;;;;;;7.06;4.88;;;;;;;12.99;86.65;99457.72;2043566;79;20176;-78
2021/09/08 03:41:40;;;;;;;5.31;4.45;;;;;;;12.95;86.49;99455.19;2043133;79;20192;-78
2021/09/08 03:44:43;;;;;;;8.60;5.14;;;;;;;12.88;86.51;99449.16;2043378;79;20565;-77
2021/09/08 03:47:45;;;;;;;6.06;5.30;;;;;;;12.86;86.31;99450.06;2042898;76;20764;-77
2021/09/08 03:50:48;;;;;;;5.80;5.20;;;;;;;12.70;86.27;99447.66;2043801;79;20164;-77
2021/09/08 03:53:51;;;;;;;5.35;4.78;;;;;;;12.63;86.42;99446.03;2043336;79;20188;-78
2021/09/08 03:56:53;;;;;;;6.90;4.76;;;;;;;12.59;86.77;99446.09;2044557;79;20192;-77
2021/09/08 03:59:56;;;;;;;7.29;5.29;;;;;;;12.55;87.06;99445.22;2043556;79;20173;-78
2021/09/08 04:02:59;;;;;;;5.32;4.84;;;;;;;12.59;87.46;99444.34;2042965;77;26807;-77
2021/09/08 04:06:02;;;;;;;8.00;5.47;;;;;;;12.57;87.66;99443.50;2043335;79;20196;-77
2021/09/08 04:09:04;;;;;;;5.96;5.36;;;;;;;12.53;87.41;99444.38;2043226;79;20186;-77
2021/09/08 04:12:07;;;;;;;6.59;5.10;;;;;;;12.50;87.85;99448.78;2043660;79;20192;-77
2021/09/08 04:15:11;;;;;;;7.93;5.22;;;;;;;12.49;87.92;99445.31;2042559;79;20209;-78
2021/09/08 04:18:13;;;;;;;8.94;5.51;;;;;;;12.51;87.98;99448.75;2043358;77;21121;-77
2021/09/08 04:21:16;;;;;;;7.89;5.76;;;;;;;12.53;87.64;99447.00;2043876;79;20152;-78
2021/09/08 04:24:19;;;;;;;5.85;5.30;;;;;;;12.56;87.67;99440.88;2043702;79;20185;-78
2021/09/08 04:27:21;;;;;;;7.60;6.72;;;;;;;12.59;87.30;99433.06;2043509;79;20199;-78
2021/09/08 04:30:24;;;;;;;9.04;7.54;;;;;;;12.66;87.66;99429.47;2042344;76;22852;-78
2021/09/08 04:33:27;;;;;;;9.10;7.04;;;;;;;12.88;89.03;99433.53;2043455;79;20213;-78
2021/09/08 04:36:29;;;;;;;9.48;7.09;;;;;;;12.95;88.42;99432.59;2042730;79;20781;-77
2021/09/08 04:39:32;;;;;;;7.47;6.72;;;;;;;12.99;88.22;99436.88;2044043;79;20997;-78
2021/09/08 04:42:34;;;;;;;7.34;6.32;;;;;;;12.94;88.88;99441.28;2043374;79;20153;-77
2021/09/08 04:45:37;;;;;;;7.50;6.29;;;;;;;12.85;89.29;99444.00;2042731;76;24596;-78
2021/09/08 04:48:39;;;;;;;7.46;6.76;;;;;;;12.80;89.18;99439.75;2042715;79;20202;-79
2021/09/08 04:51:42;;;;;;;10.19;7.91;;;;;;;12.86;89.54;99434.44;2043520;79;20568;-79
2021/09/08 04:54:45;;;;;;;9.69;7.85;;;;;;;12.98;89.80;99429.06;2043057;79;20168;-78
2021/09/08 04:57:47;;;;;;;10.50;7.96;;;;;;;13.02;89.02;99428.16;2043076;79;20212;-79
2021/09/08 05:00:51;;;;;;;10.19;8.05;;;;;;;13.06;88.99;99432.44;2042569;76;53445;-79
2021/09/08 05:03:54;;;;;;;8.19;7.26;;;;;;;13.09;88.72;99435.00;2043324;79;20230;-78
2021/09/08 05:06:56;;;;;;;12.34;7.44;;;;;;;12.98;88.64;99434.28;2043335;79;20172;-78
2021/09/08 05:10:03;;;;;;;7.26;6.18;;;;;;;12.93;89.49;99431.75;2043827;79;20882;-78
2021/09/08 05:13:06;;;;;;;6.90;6.30;;;;;;;12.88;88.95;99436.13;2043053;79;20225;-78
2021/09/08 05:16:09;;;;;;;8.48;5.60;;;;;;;12.85;88.51;99422.28;2041954;76;25977;-78
2021/09/08 05:19:13;;;;;;;7.29;6.54;;;;;;;12.77;87.99;99425.00;2043494;79;20443;-78
2021/09/08 05:22:16;;;;;;;8.21;5.75;;;;;;;12.74;88.00;99424.16;2043161;79;20172;-78
2021/09/08 05:25:19;;;;;;;7.75;5.91;;;;;;;12.69;87.61;99432.91;2044444;79;20165;-78
2021/09/08 05:28:22;;;;;;;6.57;5.60;;;;;;;12.61;87.53;99428.69;2043134;79;20194;-79
2021/09/08 05:31:25;;;;;;;8.18;5.50;;;;;;;12.56;87.20;99430.47;2042518;77;21166;-78
2021/09/08 05:34:27;;;;;;;7.63;6.06;;;;;;;12.54;87.23;99427.88;2042820;79;20194;-78
2021/09/08 05:37:30;;;;;;;7.56;5.56;;;;;;;12.58;87.29;99433.94;2043337;79;20801;-78
2021/09/08 05:40:33;;;;;;;5.81;5.28;;;;;;;12.61;87.20;99421.75;2042454;79;20176;-79
2021/09/08 05:43:37;;;;;;;6.96;5.78;;;;;;;12.64;86.93;99421.69;2042899;79;20191;-78
2021/09/08 05:46:39;;;;;;;6.89;5.95;;;;;;;12.66;86.58;99424.28;2039487;77;20579;-80
2021/09/08 05:49:42;;;;;;;7.46;5.51;;;;;;;12.59;86.50;99422.63;2039148;79;20622;-80
2021/09/08 05:52:44;;;;;;;9.59;5.97;;;;;;;12.59;86.82;99418.28;2038172;79;20348;-79
2021/09/08 05:55:47;;;;;;;7.18;5.88;;;;;;;12.62;86.87;99415.66;2037733;79;20194;-80
2021/09/08 05:58:50;;;;;;;9.69;5.96;;;;;;;12.70;87.02;99419.00;2038770;79;20173;-79
2021/09/08 06:01:52;;;;;;;8.05;6.25;;;;;;;12.76;86.94;99425.03;2039911;76;22119;-79
2021/09/08 06:04:56;;;;;;;11.68;6.16;;;;;;;12.80;87.26;99426.72;2043738;79;20188;-79
2021/09/08 06:07:58;;;;;;;6.31;5.39;;;;;;;12.93;87.57;99421.31;2043168;79;20244;-79
2021/09/08 06:11:01;;;;;;;6.56;5.64;;;;;;;13.12;87.20;99421.94;2047005;79;20854;-79
2021/09/08 06:14:04;;;;;;;9.07;6.01;;;;;;;13.30;87.26;99416.47;2043258;79;20493;-79
2021/09/08 06:17:06;;;;;;;11.99;6.28;;;;;;;13.55;86.88;99413.47;2037645;76;20759;-79
2021/09/08 06:20:09;;;;;;;9.64;6.45;;;;;;;13.88;86.56;99399.88;2032793;79;20695;-79
2021/09/08 06:23:12;;;;;;;8.00;6.78;;;;;;;14.46;85.35;99404.03;2032593;79;20166;-79
2021/09/08 06:26:14;;;;;;;9.14;7.09;;;;;;;15.17;83.42;99399.91;2033232;79;20240;-79
2021/09/08 06:29:21;;;;;;;7.74;6.91;;;;;;;15.97;81.32;99397.06;2033171;79;20192;-79
2021/09/08 06:32:24;;;;;;;7.66;6.65;;;;;;;16.75;78.28;99397.59;2036995;77;24605;-78
2021/09/08 06:35:26;;;;;;;7.93;7.14;;;;;;;17.38;75.35;99393.88;2038666;79;20169;-79
2021/09/08 06:38:29;;;;;;;9.41;6.89;;;;;;;17.92;73.03;99400.88;2038357;79;20785;-78
2021/09/08 06:41:31;;;;;;;12.04;7.38;;;;;;;18.35;71.01;99403.72;2038285;79;20565;-78
2021/09/08 06:44:34;;;;;;;7.84;7.01;;;;;;;18.60;69.55;99398.44;2039885;79;20197;-79
2021/09/08 06:47:37;;;;;;;10.45;7.22;;;;;;;18.75;68.91;99394.41;2043163;77;21415;-78
2021/09/08 06:50:39;;;;;;;7.78;6.91;;;;;;;18.90;68.60;99393.84;2048480;79;20156;-78
2021/09/08 06:53:42;;;;;;;9.51;6.47;;;;;;;19.05;67.86;99392.38;2046792;79;20743;-78
2021/09/08 06:56:45;;;;;;;9.50;6.56;;;;;;;19.17;67.17;99383.13;2046348;79;20864;-78
2021/09/08 06:59:47;;;;;;;10.18;6.86;;;;;;;19.31;66.77;99386.94;2046727;79;20329;-79
2021/09/08 07:02:50;;;;;;;7.99;6.69;;;;;;;19.42;66.14;99383.88;2052377;76;24497;-78
2021/09/08 07:05:53;;;;;;;8.91;7.29;;;;;;;19.54;65.59;99378.13;2052295;79;20184;-78
2021/09/08 07:08:56;;;;;;;7.82;6.90;;;;;;;19.69;65.04;99378.41;2052624;79;21040;-78
2021/09/08 07:12:00;;;;;;;7.11;6.45;;;;;;;19.89;64.56;99379.28;2051676;79;20164;-78
2021/09/08 07:15:03;;;;;;;7.57;5.78;;;;;;;20.07;63.78;99377.66;2052348;79;20251;-77
2021/09/08 07:18:08;;;;;;;9.26;6.19;;;;;;;20.28;63.10;99381.13;2046043;76;37642;-78
2021/09/08 07:21:10;;;;;;;9.46;6.82;;;;;;;20.52;62.77;99379.22;2047460;79;20827;-78
2021/09/08 07:24:13;;;;;;;7.15;6.31;;;;;;;20.74;61.67;99373.81;2046229;79;20601;-77
2021/09/08 07:27:17;;;;;;;7.68;6.72;;;;;;;20.90;60.66;99376.59;2046164;79;20164;-78
2021/09/08 07:30:20;;;;;;;7.39;6.03;;;;;;;21.05;60.40;99374.09;2045881;77;24153;-78
2021/09/08 07:33:24;;;;;;;6.91;6.21;;;;;;;21.30;59.41;99370.31;2046995;79;20161;-78
2021/09/08 07:36:26;;;;;;;6.74;6.04;;;;;;;21.52;58.97;99370.94;2045912;79;20694;-78
2021/09/08 07:39:29;;;;;;;7.39;5.66;;;;;;;21.66;58.25;99354.41;2047014;79;20235;-78
2021/09/08 07:42:32;;;;;;;6.88;5.85;;;;;;;21.75;57.33;99350.47;2047847;79;20186;-78
2021/09/08 07:45:35;;;;;;;6.63;5.28;;;;;;;21.87;57.47;99355.97;2047758;76;27391;-78
2021/09/08 07:48:39;;;;;;;8.79;5.86;;;;;;;22.09;56.09;99349.63;2046872;79;20160;-78
2021/09/08 07:51:41;;;;;;;11.04;5.95;;;;;;;22.26;55.62;99353.09;2046391;79;20272;-78
2021/09/08 07:54:44;;;;;;;8.86;6.44;;;;;;;22.46;55.08;99349.41;2046554;79;20172;-79
2021/09/08 07:57:47;;;;;;;7.41;5.88;;;;;;;22.66;54.73;99348.31;2045536;79;20187;-78
2021/09/08 08:00:50;;;;;;;6.56;5.76;;;;;;;22.87;54.03;99347.16;2048340;76;24465;-78
2021/09/08 08:03:52;;;;;;;6.18;5.05;;;;;;;23.11;53.50;99344.06;2056747;78;20849;-78
2021/09/08 08:06:56;;;;;;;10.36;5.75;;;;;;;23.34;52.91;99338.34;2057951;78;20559;-78
2021/09/08 08:09:58;;;;;;;7.03;5.24;;;;;;;23.60;52.62;99334.19;2061088;78;20186;-78
2021/09/08 08:13:01;;;;;;;6.72;5.36;;;;;;;23.80;51.23;99333.88;2057308;78;20246;-77
2021/09/08 08:16:04;;;;;;;6.84;4.97;;;;;;;24.03;50.72;99335.13;2051876;76;22219;-77
2021/09/08 08:19:06;;;;;;;7.44;5.04;;;;;;;24.16;49.56;99337.91;2044053;79;20205;-77
2021/09/08 08:22:09;;;;;;;5.35;4.84;;;;;;;24.24;48.65;99327.69;2040872;79;20245;-78
2021/09/08 08:25:14;;;;;;;7.39;4.70;;;;;;;24.33;48.18;99327.13;2040786;79;20161;-77
2021/09/08 08:28:17;;;;;;;5.13;4.64;;;;;;;24.44;47.93;99331.78;2040811;79;20784;-77
2021/09/08 08:31:20;;;;;;;5.28;4.78;;;;;;;24.55;48.16;99339.06;2039371;76;23246;-78
2021/09/08 08:34:23;;;;;;;6.80;4.84;;;;;;;24.70;47.32;99332.78;2040394;79;20173;-77
2021/09/08 08:37:26;;;;;;;5.47;4.46;;;;;;;24.90;46.88;99336.84;2041312;79;20872;-78
2021/09/08 08:40:32;;;;;;;4.41;4.03;;;;;;;25.08;46.41;99330.38;2041715;79;20161;-77
2021/09/08 08:43:35;;;;;;;6.06;4.55;;;;;;;25.28;46.23;99329.06;2040840;79;20185;-77
2021/09/08 08:46:37;;;;;;;5.90;4.01;;;;;;;25.25;44.53;99329.28;2040514;79;20261;-78
2021/09/08 08:49:41;;;;;;;9.05;4.03;;;;;;;25.21;43.96;99320.66;2040973;79;20217;-77
2021/09/08 08:52:45;;;;;;;4.88;4.00;;;;;;;25.25;43.37;99324.81;2039417;79;20174;-77
2021/09/08 08:55:48;;;;;;;6.64;4.60;;;;;;;25.25;43.32;99323.94;2038096;79;20210;-76
2021/09/08 08:58:51;;;;;;;4.74;4.15;;;;;;;25.37;43.39;99319.66;2039729;79;20320;-77
2021/09/08 09:01:54;;;;;;;4.91;4.07;;;;;;;25.51;42.62;99320.44;2043793;76;20844;-77
2021/09/08 09:05:00;;;;;;;5.07;4.45;;;;;;;25.53;42.41;99321.19;2047512;79;20792;-76
2021/09/08 09:08:09;;;;;;;6.16;4.21;;;;;;;25.60;42.36;99318.94;2048201;79;20694;-77
2021/09/08 09:11:11;;;;;;;5.51;3.86;;;;;;;25.69;42.35;99307.75;2047857;79;20172;-76
2021/09/08 09:14:16;;;;;;;4.40;3.65;;;;;;;25.81;41.93;99306.03;2048325;79;20267;-76
2021/09/08 09:17:20;;;;;;;5.59;4.20;;;;;;;25.85;41.65;99295.09;2044834;76;22517;-76
2021/09/08 09:20:25;;;;;;;3.85;3.51;;;;;;;25.97;41.39;99295.19;2048492;79;20961;-76
2021/09/08 09:23:40;;;;;;;4.22;3.84;;;;;;;26.10;40.96;99288.91;2049042;79;20156;-76
2021/09/08 09:26:44;;;;;;;4.25;3.71;;;;;;;26.17;40.88;99290.19;2048847;79;20211;-76
2021/09/08 09:29:47;;;;;;;5.04;3.45;;;;;;;26.22;40.47;99294.34;2047766;79;20223;-76
2021/09/08 09:32:52;;;;;;;6.28;3.69;;;;;;;26.25;40.23;99299.44;2041720;77;21111;-76
2021/09/08 09:35:54;;;;;;;4.39;3.99;;;;;;;26.27;39.85;99294.88;2042328;79;20269;-76
2021/09/08 09:38:58;;;;;;;3.90;3.55;;;;;;;26.37;39.45;99290.63;2040122;79;20271;-76
2021/09/08 09:42:06;;;;;;;4.31;3.61;;;;;;;26.43;39.21;99288.38;2042655;79;20216;-77
2021/09/08 09:45:11;;;;;;;4.56;3.84;;;;;;;26.49;39.18;99289.75;2042847;79;20228;-76
2021/09/08 09:48:14;;;;;;;3.63;3.31;;;;;;;26.56;39.33;99293.66;2047411;76;22104;-76
2021/09/08 09:51:17;;;;;;;3.84;3.45;;;;;;;26.61;38.82;99299.53;2048042;79;20217;-76
2021/09/08 09:54:20;;;;;;;7.43;3.84;;;;;;;26.65;38.54;99293.03;2047243;79;20171;-77
2021/09/08 09:57:24;;;;;;;4.41;3.01;;;;;;;26.68;38.10;99295.47;2044649;79;20851;-76
2021/09/08 10:00:28;;;;;;;3.90;3.55;;;;;;;26.70;37.85;99287.34;2045739;79;20176;-75
2021/09/08 10:03:32;;;;;;;3.63;3.20;;;;;;;26.89;38.22;99290.38;2046381;79;20616;-77
2021/09/08 10:06:36;;;;;;;3.69;2.92;;;;;;;27.05;36.45;99279.47;2045605;79;20662;-75
2021/09/08 10:09:39;;;;;;;3.50;3.20;;;;;;;27.19;37.51;99284.63;2047148;79;20229;-76
2021/09/08 10:12:51;;;;;;;4.90;3.30;;;;;;;27.26;36.92;99279.69;2046663;79;20189;-76
2021/09/08 10:15:54;;;;;;;4.47;3.13;;;;;;;27.35;36.15;99273.69;2043784;76;21344;-76
2021/09/08 10:19:04;;;;;;;5.32;3.26;;;;;;;27.36;35.65;99278.03;2041632;79;20370;-76
2021/09/08 10:22:08;;;;;;;5.55;3.29;;;;;;;27.42;35.10;99282.06;2043105;79;20206;-77
2021/09/08 10:25:14;;;;;;;3.44;2.94;;;;;;;27.41;34.88;99265.19;2042314;79;20671;-76
2021/09/08 10:28:18;;;;;;;6.18;3.01;;;;;;;27.57;35.69;99268.41;2041884;79;20176;-77
2021/09/08 10:31:21;;;;;;;4.76;3.47;;;;;;;27.66;34.94;99261.56;2041700;77;22650;-77
2021/09/08 10:34:25;;;;;;;7.14;3.28;;;;;;;27.65;34.91;99254.53;2043210;79;20206;-76
2021/09/08 10:37:28;;;;;;;5.13;3.44;;;;;;;27.67;34.94;99255.25;2043166;79;20345;-77
2021/09/08 10:40:31;;;;;;;3.61;3.29;;;;;;;27.66;34.96;99250.91;2043392;79;20677;-78
2021/09/08 10:43:37;;;;;;;10.91;2.69;;;;;;;27.63;36.38;99240.44;2042405;79;20188;-76
2021/09/08 10:46:59;;;;;;;4.49;2.81;;;;;;;27.64;35.41;99234.13;2044877;79;20199;-76
2021/09/08 10:50:04;;;;;;;3.60;3.30;;;;;;;27.59;35.44;99231.78;2048335;79;20941;-77
2021/09/08 10:53:16;;;;;;;3.25;3.05;;;;;;;27.55;34.85;99233.00;2046799;79;20184;-78
2021/09/08 10:56:39;;;;;;;3.44;3.11;;;;;;;27.55;35.23;99226.81;2047738;79;20240;-78
2021/09/08 11:00:01;;;;;;;4.18;2.90;;;;;;;27.60;35.34;99224.63;2047590;79;20719;-76
2021/09/08 11:03:25;;;;;;;3.45;3.15;;;;;;;27.70;35.02;99231.00;2041949;77;22665;-76
2021/09/08 11:06:37;;;;;;;6.56;3.03;;;;;;;27.75;35.03;99226.16;2042505;79;20269;-80
2021/09/08 11:09:40;;;;;;;6.44;2.89;;;;;;;27.77;34.86;99216.19;2042707;79;20200;-78
2021/09/08 11:12:45;;;;;;;3.31;3.00;;;;;;;27.84;35.08;99220.13;2042416;79;20192;-76
2021/09/08 11:15:47;;;;;;;3.88;3.16;;;;;;;27.83;34.30;99214.88;2042747;76;23486;-77
2021/09/08 11:18:56;;;;;;;7.07;3.78;;;;;;;27.92;35.04;99212.34;2048116;79;20326;-76
2021/09/08 11:21:59;;;;;;;3.26;2.92;;;;;;;28.04;35.85;99210.53;2048080;79;20197;-76
2021/09/08 11:25:07;;;;;;;5.72;2.96;;;;;;;28.07;35.19;99210.28;2047185;79;20201;-77
2021/09/08 11:28:11;;;;;;;3.20;2.90;;;;;;;28.17;34.02;99205.88;2044339;79;20227;-76
2021/09/08 11:31:19;;;;;;;5.39;3.29;;;;;;;28.26;34.88;99207.03;2045016;76;21003;-76
2021/09/08 11:34:27;;;;;;;3.49;2.79;;;;;;;28.31;33.76;99199.47;2046708;79;20172;-76
2021/09/08 11:37:29;;;;;;;2.95;2.60;;;;;;;28.34;33.21;99201.06;2042359;79;20228;-76
2021/09/08 11:40:33;;;;;;;2.76;2.56;;;;;;;28.35;32.79;99202.75;2042093;79;20503;-76
2021/09/08 11:43:48;;;;;;;2.39;2.19;;;;;;;28.32;33.16;99187.81;2041472;79;21261;-78
2021/09/08 11:46:51;;;;;;;5.07;2.91;;;;;;;28.43;33.35;99194.97;2046229;76;23528;-76
2021/09/08 11:50:01;;;;;;;3.00;2.63;;;;;;;28.54;33.20;99189.59;2047739;79;20270;-77
2021/09/08 11:53:03;;;;;;;3.16;2.40;;;;;;;28.70;33.40;99186.50;2047317;79;20207;-76
2021/09/08 11:56:12;;;;;;;5.71;3.04;;;;;;;28.72;32.61;99181.88;2047739;79;20517;-76
2021/09/08 11:59:15;;;;;;;3.28;2.63;;;;;;;28.74;31.71;99175.47;2047132;79;20183;-77
2021/09/08 12:02:18;;;;;;;2.85;2.60;;;;;;;28.72;31.24;99171.19;2046128;76;24058;-78
2021/09/08 12:05:22;;;;;;;2.99;2.66;;;;;;;28.79;31.07;99162.56;2047415;79;20200;-76
2021/09/08 12:08:25;;;;;;;3.33;2.30;;;;;;;28.73;31.25;99160.41;2047451;79;20286;-78
2021/09/08 12:11:42;;;;;;;2.30;2.10;;;;;;;28.76;31.33;99153.97;2046835;79;20225;-76
2021/09/08 12:14:46;;;;;;;3.29;2.12;;;;;;;28.88;31.39;99147.59;2047625;79;20380;-78
2021/09/08 12:17:49;;;;;;;4.56;2.67;;;;;;;28.96;31.72;99153.16;2041690;76;23037;-76
2021/09/08 12:20:52;;;;;;;3.47;2.54;;;;;;;29.05;31.57;99146.19;2041673;79;20196;-76
2021/09/08 12:24:22;;;;;;;4.46;2.54;;;;;;;29.11;31.55;99137.66;2042101;79;20210;-76
2021/09/08 12:27:31;;;;;;;7.66;2.25;;;;;;;29.15;31.26;99131.06;2041995;79;20780;-76
2021/09/08 12:30:33;;;;;;;7.95;2.54;;;;;;;29.22;31.25;99129.56;2042192;79;23676;-77
2021/09/08 12:33:59;;;;;;;4.86;2.63;;;;;;;29.18;30.47;99128.97;2047543;79;20625;-78
2021/09/08 12:37:08;;;;;;;2.47;2.30;;;;;;;29.11;30.58;99122.47;2047708;79;20294;-77
2021/09/08 12:40:12;;;;;;;3.06;2.35;;;;;;;29.15;30.31;99112.34;2047135;79;20258;-76
2021/09/08 12:43:29;;;;;;;4.46;2.05;;;;;;;29.19;30.56;99117.28;2047189;79;20666;-77
2021/09/08 12:46:47;;;;;;;3.04;2.01;;;;;;;29.21;30.27;99116.31;2047283;76;22265;-78
2021/09/08 12:49:49;;;;;;;2.31;1.88;;;;;;;29.19;30.04;99117.28;2047512;79;21002;-79
2021/09/08 12:52:53;;;;;;;4.40;2.53;;;;;;;29.23;30.20;99117.03;2047655;79;20207;-77
2021/09/08 12:55:56;;;;;;;4.35;2.31;;;;;;;29.21;30.14;99098.44;2046793;79;20568;-78
2021/09/08 12:59:00;;;;;;;3.94;2.26;;;;;;;29.21;29.87;99109.13;2050879;78;20240;-77
2021/09/08 13:02:04;;;;;;;2.28;2.06;;;;;;;29.18;29.80;99110.25;2042449;76;23349;-77
2021/09/08 13:05:08;;;;;;;2.36;1.95;;;;;;;29.17;29.57;99105.03;2041720;79;20184;-77
2021/09/08 13:08:11;;;;;;;4.94;2.22;;;;;;;29.12;29.36;99097.41;2041445;79;20188;-77
2021/09/08 13:11:14;;;;;;;3.13;1.92;;;;;;;29.10;30.07;99099.38;2042373;79;20208;-79
2021/09/08 13:14:18;;;;;;;3.36;1.88;;;;;;;29.09;29.72;99089.66;2041408;79;20189;-77
2021/09/08 13:17:20;;;;;;;4.45;2.11;;;;;;;29.15;30.11;99090.94;2044275;76;22161;-77
2021/09/08 13:20:23;;;;;;;2.90;2.20;;;;;;;29.15;30.14;99098.97;2043822;78;20196;-77
2021/09/08 13:23:26;;;;;;;1.76;1.66;;;;;;;29.14;30.02;99091.94;2046724;79;20591;-77
2021/09/08 13:26:29;;;;;;;2.13;2.03;;;;;;;29.12;29.68;99085.88;2046607;79;20610;-77
2021/09/08 13:29:32;;;;;;;4.57;1.90;;;;;;;29.11;29.89;99085.03;2046794;79;20242;-77
2021/09/08 13:32:35;;;;;;;3.04;1.99;;;;;;;29.15;29.75;99081.09;2040669;77;21363;-77
2021/09/08 13:35:37;;;;;;;2.79;1.90;;;;;;;29.21;30.52;99071.69;2041230;79;20226;-77
2021/09/08 13:38:40;;;;;;;3.79;2.00;;;;;;;29.21;30.10;99070.84;2040824;79;20192;-77
2021/09/08 13:41:43;;;;;;;2.95;2.17;;;;;;;29.16;30.46;99068.56;2040536;79;20176;-77
2021/09/08 13:44:47;;;;;;;2.74;1.92;;;;;;;29.17;30.49;99062.25;2040547;79;20161;-77
2021/09/08 13:47:49;;;;;;;2.01;1.84;;;;;;;29.18;30.29;99059.44;2045220;76;21889;-76
2021/09/08 13:50:52;;;;;;;2.36;2.14;;;;;;;29.21;30.86;99052.97;2046702;79;20209;-77
2021/09/08 13:53:55;;;;;;;2.30;1.85;;;;;;;29.19;30.80;99055.78;2047294;79;20294;-77
2021/09/08 13:56:58;;;;;;;2.21;2.11;;;;;;;29.21;30.86;99047.63;2047091;79;21086;-77
2021/09/08 14:00:00;;;;;;;3.64;2.16;;;;;;;29.22;30.73;99043.13;2046425;79;20196;-77
2021/09/08 14:03:04;;;;;;;2.00;1.90;;;;;;;29.04;30.45;99054.44;2041695;76;21384;-78
2021/09/08 14:06:07;;;;;;;2.40;1.98;;;;;;;28.68;31.06;99036.16;2041171;79;20208;-77
2021/09/08 14:09:10;;;;;;;2.08;1.80;;;;;;;28.51;32.20;99034.91;2041822;79;20629;-77
2021/09/08 14:12:13;;;;;;;2.03;1.92;;;;;;;28.58;32.05;99033.44;2042123;79;20261;-77
2021/09/08 14:15:16;;;;;;;2.08;1.98;;;;;;;28.72;31.82;99029.56;2041680;79;20164;-79
2021/09/08 14:18:19;;;;;;;2.86;1.91;;;;;;;28.81;31.78;99024.28;2048012;76;21531;-76
2021/09/08 14:21:21;;;;;;;2.36;2.00;;;;;;;28.84;32.43;99017.84;2046755;79;20238;-77
2021/09/08 14:24:24;;;;;;;2.80;2.17;;;;;;;28.90;31.88;99014.66;2047036;79;20168;-77